createdAt,value
2023-05-20T00:01:53.544Z,4.80
2023-05-20T00:04:20.749Z,4.20
2023-05-20T00:06:47.469Z,3.50
2023-05-20T00:09:14.275Z,4.20
2023-05-20T00:11:41.114Z,3.70
2023-05-20T00:14:07.825Z,5.40
2023-05-20T00:16:34.943Z,3.90
2023-05-20T00:19:01.648Z,3.40
2023-05-20T00:21:28.370Z,3.20
2023-05-20T00:23:56.450Z,4.70
2023-05-20T00:26:23.313Z,3.90
2023-05-20T00:28:52.223Z,3.60
2023-05-20T00:31:18.989Z,3.20
2023-05-20T00:33:45.749Z,2.60
2023-05-20T00:36:12.462Z,3.50
2023-05-20T00:38:39.109Z,3.70
2023-05-20T00:41:06.029Z,4.40
2023-05-20T00:43:42.058Z,4.90
2023-05-20T00:46:08.974Z,4.10
2023-05-20T00:48:44.084Z,2.30
2023-05-20T00:51:13.105Z,3.00
2023-05-20T00:53:40.688Z,2.80
2023-05-20T00:56:08.514Z,2.90
2023-05-20T00:58:37.064Z,3.80
2023-05-20T01:01:06.068Z,3.20
2023-05-20T01:03:33.631Z,3.50
2023-05-20T01:06:01.277Z,5.90
2023-05-20T01:08:28.810Z,3.80
2023-05-20T01:11:05.157Z,3.10
2023-05-20T01:13:39.224Z,3.40
2023-05-20T01:16:08.974Z,3.00
2023-05-20T01:18:36.398Z,2.80
2023-05-20T01:21:07.366Z,5.10
2023-05-20T01:23:42.065Z,3.20
2023-05-20T01:26:13.696Z,2.80
2023-05-20T01:31:24.192Z,3.40
2023-05-20T01:33:58.187Z,3.20
2023-05-20T01:36:27.659Z,3.30
2023-05-20T01:38:56.267Z,2.80
2023-05-20T01:41:26.716Z,4.50
2023-05-20T01:43:55.603Z,3.50
2023-05-20T01:46:22.679Z,3.40
2023-05-20T01:48:49.673Z,2.90
2023-05-20T01:51:16.829Z,5.50
2023-05-20T01:53:43.747Z,3.70
2023-05-20T01:56:10.413Z,3.20
2023-05-20T01:58:37.173Z,3.50
2023-05-20T02:01:04.240Z,3.00
2023-05-20T02:03:30.949Z,5.00
2023-05-20T02:05:57.973Z,3.00
2023-05-20T02:08:24.952Z,3.50
2023-05-20T02:10:51.897Z,3.00
2023-05-20T02:13:19.156Z,3.40
2023-05-20T02:15:46.045Z,3.10
2023-05-20T02:18:14.192Z,3.40
2023-05-20T02:20:41.384Z,3.10
2023-05-20T02:23:08.814Z,3.30
2023-05-20T02:25:36.873Z,5.10
2023-05-20T02:28:05.943Z,7.40
2023-05-20T02:30:32.907Z,3.60
2023-05-20T02:33:00.056Z,3.50
2023-05-20T02:35:27.080Z,3.40
2023-05-20T02:37:54.151Z,3.20
2023-05-20T02:40:21.199Z,2.60
2023-05-20T02:42:48.059Z,2.40
2023-05-20T02:45:14.745Z,3.00
2023-05-20T02:47:41.668Z,3.20
2023-05-20T02:50:09.226Z,2.50
2023-05-20T02:52:36.871Z,3.80
2023-05-20T02:55:04.625Z,2.50
2023-05-20T02:57:31.571Z,3.00
2023-05-20T02:59:58.621Z,2.80
2023-05-20T03:02:25.719Z,2.80
2023-05-20T03:04:54.962Z,2.50
2023-05-20T03:07:22.617Z,2.30
2023-05-20T03:09:49.484Z,2.80
2023-05-20T03:12:16.936Z,2.30
2023-05-20T03:14:44.290Z,2.50
2023-05-20T03:17:11.668Z,5.00
2023-05-20T03:19:38.611Z,3.40
2023-05-20T03:22:06.076Z,2.50
2023-05-20T03:24:33.315Z,3.30
2023-05-20T03:27:00.209Z,2.40
2023-05-20T03:29:27.183Z,2.20
2023-05-20T03:31:54.146Z,3.00
2023-05-20T03:34:21.296Z,3.10
2023-05-20T03:36:48.655Z,2.20
2023-05-20T03:39:15.603Z,2.80
2023-05-20T03:41:42.946Z,4.30
2023-05-20T03:44:10.262Z,3.40
2023-05-20T03:46:38.005Z,3.30
2023-05-20T03:49:05.812Z,3.10
2023-05-20T03:51:32.551Z,3.00
2023-05-20T03:54:04.250Z,2.60
2023-05-20T03:56:31.376Z,2.90
2023-05-20T03:58:58.457Z,3.30
2023-05-20T04:01:26.224Z,2.30
2023-05-20T04:03:53.102Z,3.40
2023-05-20T04:06:20.018Z,2.80
2023-05-20T04:08:47.168Z,2.50
2023-05-20T04:11:14.105Z,3.20
2023-05-20T04:13:40.731Z,3.60
2023-05-20T04:16:07.648Z,2.40
2023-05-20T04:18:39.527Z,2.80
2023-05-20T04:21:06.640Z,3.70
2023-05-20T04:23:33.562Z,2.90
2023-05-20T04:26:02.636Z,3.00
2023-05-20T04:28:32.776Z,3.90
2023-05-20T04:31:04.727Z,3.30
2023-05-20T04:33:33.467Z,3.10
2023-05-20T04:36:01.101Z,2.80
2023-05-20T04:38:32.891Z,3.00
2023-05-20T04:41:01.663Z,2.40
2023-05-20T04:43:33.919Z,3.00
2023-05-20T04:46:01.727Z,3.60
2023-05-20T04:48:29.004Z,3.10
2023-05-20T04:50:57.172Z,2.90
2023-05-20T04:53:25.028Z,3.00
2023-05-20T04:55:57.056Z,2.40
2023-05-20T04:58:25.391Z,2.90
2023-05-20T05:00:53.004Z,3.80
2023-05-20T05:03:19.690Z,3.30
2023-05-20T05:05:46.483Z,2.90
2023-05-20T05:08:14.505Z,3.40
2023-05-20T05:13:14.149Z,2.60
2023-05-20T05:15:41.484Z,3.20
2023-05-20T05:18:08.546Z,3.70
2023-05-20T05:20:35.878Z,3.80
2023-05-20T05:23:02.896Z,4.10
2023-05-20T05:25:29.819Z,2.90
2023-05-20T05:27:58.426Z,3.20
2023-05-20T05:30:25.777Z,2.50
2023-05-20T05:32:52.950Z,4.40
2023-05-20T05:35:20.295Z,2.90
2023-05-20T05:37:48.274Z,3.20
2023-05-20T05:40:15.715Z,3.20
2023-05-20T05:42:42.916Z,3.30
2023-05-20T05:45:11.064Z,3.80
2023-05-20T05:47:37.862Z,3.50
2023-05-20T05:50:05.350Z,3.10
2023-05-20T05:52:33.009Z,3.10
2023-05-20T05:55:01.647Z,3.70
2023-05-20T05:57:28.671Z,3.10
2023-05-20T05:59:55.431Z,3.30
2023-05-20T06:02:23.154Z,3.40
2023-05-20T06:04:49.970Z,4.00
2023-05-20T06:07:17.509Z,4.40
2023-05-20T06:09:44.576Z,2.90
2023-05-20T06:12:13.296Z,3.00
2023-05-20T06:14:40.746Z,4.00
2023-05-20T06:17:08.286Z,3.00
2023-05-20T06:19:35.572Z,3.60
2023-05-20T06:22:02.566Z,4.80
2023-05-20T06:24:29.479Z,2.70
2023-05-20T06:26:56.248Z,4.60
2023-05-20T06:29:24.033Z,3.30
2023-05-20T06:31:51.176Z,3.40
2023-05-20T06:34:18.071Z,3.20
2023-05-20T06:36:44.818Z,2.90
2023-05-20T06:39:12.755Z,2.80
2023-05-20T06:41:42.608Z,3.50
2023-05-20T06:44:10.571Z,2.70
2023-05-20T06:47:06.431Z,2.70
2023-05-20T06:49:33.395Z,3.40
2023-05-20T06:52:00.299Z,2.90
2023-05-20T06:54:27.132Z,2.40
2023-05-20T06:56:54.492Z,3.20
2023-05-20T06:59:21.849Z,3.70
2023-05-20T07:01:48.684Z,2.90
2023-05-20T07:04:15.933Z,4.80
2023-05-20T07:06:43.491Z,3.30
2023-05-20T07:09:10.356Z,2.80
2023-05-20T07:11:37.641Z,4.40
2023-05-20T07:14:05.485Z,4.30
2023-05-20T07:16:35.406Z,3.40
2023-05-20T07:19:03.132Z,4.50
2023-05-20T07:21:30.205Z,3.20
2023-05-20T07:24:11.815Z,3.40
2023-05-20T07:26:38.784Z,4.80
2023-05-20T07:29:05.597Z,3.40
2023-05-20T07:31:32.978Z,4.30
2023-05-20T07:33:59.893Z,3.20
2023-05-20T07:36:28.243Z,3.50
2023-05-20T07:39:02.928Z,3.60
2023-05-20T07:41:34.809Z,3.40
2023-05-20T07:44:04.928Z,3.30
2023-05-20T07:46:32.739Z,3.50
2023-05-20T07:48:59.428Z,3.20
2023-05-20T07:51:26.776Z,3.50
2023-05-20T07:53:54.466Z,3.10
2023-05-20T07:56:22.291Z,3.80
2023-05-20T07:59:00.607Z,4.40
2023-05-20T08:01:30.945Z,4.70
2023-05-20T08:03:58.208Z,4.10
2023-05-20T08:06:27.905Z,5.00
2023-05-20T08:08:56.580Z,5.40
2023-05-20T08:11:28.299Z,3.10
2023-05-20T08:13:55.422Z,4.20
2023-05-20T08:16:23.367Z,4.60
2023-05-20T08:18:50.520Z,4.10
2023-05-20T08:21:19.725Z,3.60
2023-05-20T08:23:46.671Z,4.30
2023-05-20T08:26:13.562Z,4.80
2023-05-20T08:28:42.023Z,6.40
2023-05-20T08:31:08.916Z,5.00
2023-05-20T08:33:36.317Z,4.50
2023-05-20T08:36:03.338Z,3.60
2023-05-20T08:38:30.160Z,5.10
2023-05-20T08:40:57.758Z,5.40
2023-05-20T08:43:26.787Z,5.20
2023-05-20T08:45:54.950Z,4.20
2023-05-20T08:48:28.040Z,5.70
2023-05-20T08:50:57.880Z,3.80
2023-05-20T08:53:24.903Z,4.80
2023-05-20T08:56:00.837Z,3.90
2023-05-20T08:58:32.903Z,4.50
2023-05-20T09:00:59.980Z,5.10
2023-05-20T09:03:27.042Z,5.00
2023-05-20T09:05:54.767Z,5.60
2023-05-20T09:08:29.090Z,4.30
2023-05-20T09:10:56.123Z,6.00
2023-05-20T09:13:24.425Z,4.80
2023-05-20T09:15:51.352Z,6.80
2023-05-20T09:18:18.447Z,5.70
2023-05-20T09:20:48.151Z,10.30
2023-05-20T09:23:16.205Z,9.00
2023-05-20T09:25:42.954Z,5.80
2023-05-20T09:28:10.498Z,6.90
2023-05-20T09:30:37.266Z,5.00
2023-05-20T09:33:05.566Z,5.60
2023-05-20T09:35:37.706Z,6.30
2023-05-20T09:38:06.686Z,5.90
2023-05-20T09:40:33.940Z,6.30
2023-05-20T09:43:03.429Z,6.40
2023-05-20T09:45:31.799Z,6.50
2023-05-20T09:48:01.845Z,6.70
2023-05-20T09:50:30.820Z,7.70
2023-05-20T09:53:03.537Z,6.20
2023-05-20T09:55:31.446Z,7.00
2023-05-20T09:58:02.224Z,6.40
2023-05-20T10:00:29.676Z,5.60
2023-05-20T10:02:57.792Z,5.40
2023-05-20T10:05:32.114Z,6.80
2023-05-20T10:08:15.001Z,5.50
2023-05-20T10:11:04.661Z,7.40
2023-05-20T10:16:30.148Z,6.00
2023-05-20T10:19:12.486Z,6.40
2023-05-20T10:21:39.317Z,6.10
2023-05-20T10:24:07.696Z,7.70
2023-05-20T10:26:39.409Z,7.00
2023-05-20T10:29:20.230Z,6.70
2023-05-20T10:31:52.676Z,6.70
2023-05-20T10:34:21.527Z,7.10
2023-05-20T10:36:54.495Z,10.00
2023-05-20T10:39:30.150Z,9.40
2023-05-20T10:42:10.699Z,9.40
2023-05-20T10:44:44.693Z,8.10
2023-05-20T10:49:54.485Z,9.20
2023-05-20T10:52:22.652Z,9.00
2023-05-20T10:55:29.738Z,8.50
2023-05-20T10:58:06.139Z,8.60
2023-05-20T11:00:39.317Z,7.90
2023-05-20T11:03:25.282Z,7.70
2023-05-20T11:05:52.210Z,10.10
2023-05-20T11:08:27.674Z,8.20
2023-05-20T11:10:58.064Z,7.30
2023-05-20T11:13:26.339Z,8.60
2023-05-20T11:15:53.498Z,8.40
2023-05-20T11:18:20.368Z,8.20
2023-05-20T11:20:47.658Z,8.00
2023-05-20T11:23:15.634Z,9.20
2023-05-20T11:25:42.964Z,9.00
2023-05-20T11:28:14.521Z,11.30
2023-05-20T11:30:44.576Z,9.50
2023-05-20T11:33:16.872Z,9.40
2023-05-20T11:35:48.873Z,9.10
2023-05-20T11:38:16.378Z,10.20
2023-05-20T11:40:50.581Z,9.20
2023-05-20T11:43:18.491Z,8.50
2023-05-20T11:45:52.652Z,7.80
2023-05-20T11:48:25.316Z,9.40
2023-05-20T11:50:54.359Z,8.40
2023-05-20T11:53:22.902Z,9.00
2023-05-20T11:55:52.386Z,10.70
2023-05-20T11:58:23.941Z,9.80
2023-05-20T12:00:55.054Z,7.10
2023-05-20T12:03:28.048Z,9.90
2023-05-20T12:05:54.989Z,7.40
2023-05-20T12:08:22.927Z,8.10
2023-05-20T12:10:49.774Z,12.00
2023-05-20T12:13:16.518Z,11.00
2023-05-20T12:15:43.377Z,10.10
2023-05-20T12:18:10.361Z,9.20
2023-05-20T12:20:37.494Z,8.90
2023-05-20T12:23:05.077Z,11.30
2023-05-20T12:25:31.870Z,8.50
2023-05-20T12:27:59.272Z,8.00
2023-05-20T12:30:26.110Z,9.60
2023-05-20T12:32:52.935Z,8.90
2023-05-20T12:35:35.796Z,9.10
2023-05-20T12:38:02.617Z,10.20
2023-05-20T12:40:29.413Z,9.20
2023-05-20T12:42:56.168Z,9.10
2023-05-20T12:45:22.799Z,8.70
2023-05-20T12:47:51.120Z,8.10
2023-05-20T12:50:18.182Z,8.40
2023-05-20T12:52:44.850Z,9.90
2023-05-20T12:55:15.678Z,9.20
2023-05-20T12:57:47.885Z,9.80
2023-05-20T13:00:15.785Z,6.80
2023-05-20T13:02:43.635Z,9.50
2023-05-20T13:05:11.379Z,11.20
2023-05-20T13:07:38.834Z,7.90
2023-05-20T13:10:07.165Z,8.30
2023-05-20T13:12:34.863Z,9.10
2023-05-20T13:15:01.796Z,10.90
2023-05-20T13:17:28.491Z,8.50
2023-05-20T13:19:55.782Z,8.10
2023-05-20T13:22:23.043Z,8.20
2023-05-20T13:24:49.750Z,9.80
2023-05-20T13:27:16.568Z,10.40
2023-05-20T13:29:43.775Z,9.90
2023-05-20T13:32:10.658Z,10.40
2023-05-20T13:34:38.688Z,9.60
2023-05-20T13:37:06.044Z,10.40
2023-05-20T13:39:33.505Z,10.10
2023-05-20T13:42:00.565Z,9.90
2023-05-20T13:44:27.347Z,11.10
2023-05-20T13:46:54.197Z,8.40
2023-05-20T13:49:22.019Z,10.70
2023-05-20T13:51:48.814Z,11.00
2023-05-20T13:54:15.817Z,12.20
2023-05-20T13:56:42.680Z,9.90
2023-05-20T13:59:09.404Z,10.90
2023-05-20T14:01:37.197Z,9.80
2023-05-20T14:04:05.239Z,12.50
2023-05-20T14:06:32.957Z,10.00
2023-05-20T14:08:59.848Z,8.40
2023-05-20T14:11:26.595Z,10.80
2023-05-20T14:13:53.572Z,10.00
2023-05-20T14:16:20.752Z,10.90
2023-05-20T14:18:47.560Z,11.00
2023-05-20T14:21:14.583Z,10.20
2023-05-20T14:23:44.545Z,10.20
2023-05-20T14:26:11.567Z,10.80
2023-05-20T14:28:39.361Z,10.60
2023-05-20T14:31:08.954Z,11.20
2023-05-20T14:33:36.845Z,9.50
2023-05-20T14:36:04.417Z,12.00
2023-05-20T14:38:31.520Z,10.60
2023-05-20T14:40:58.369Z,11.20
2023-05-20T14:43:25.039Z,9.30
2023-05-20T14:45:52.969Z,10.10
2023-05-20T14:48:19.652Z,10.00
2023-05-20T14:50:47.680Z,10.20
2023-05-20T14:53:17.438Z,12.20
2023-05-20T14:55:44.252Z,9.80
2023-05-20T14:58:11.103Z,11.20
2023-05-20T15:00:38.006Z,9.60
2023-05-20T15:03:05.066Z,11.00
2023-05-20T15:05:32.061Z,9.80
2023-05-20T15:07:58.725Z,10.00
2023-05-20T15:10:25.921Z,11.50
2023-05-20T15:12:53.512Z,13.10
2023-05-20T15:15:21.327Z,10.40
2023-05-20T15:17:48.155Z,11.00
2023-05-20T15:20:15.164Z,12.20
2023-05-20T15:22:45.719Z,9.30
2023-05-20T15:25:12.446Z,15.30
2023-05-20T15:27:43.472Z,11.30
2023-05-20T15:30:10.898Z,10.80
2023-05-20T15:32:38.063Z,8.90
2023-05-20T15:35:06.150Z,9.90
2023-05-20T15:37:32.904Z,10.10
2023-05-20T15:39:59.589Z,10.30
2023-05-20T15:42:27.034Z,10.90
2023-05-20T15:44:53.869Z,8.90
2023-05-20T15:47:21.416Z,10.10
2023-05-20T15:49:48.578Z,11.00
2023-05-20T15:52:15.629Z,11.50
2023-05-20T15:54:42.473Z,9.30
2023-05-20T15:57:10.130Z,10.20
2023-05-20T15:59:37.172Z,10.20
2023-05-20T16:02:03.921Z,9.00
2023-05-20T16:04:31.105Z,9.70
2023-05-20T16:06:57.897Z,9.60
2023-05-20T16:09:24.622Z,9.70
2023-05-20T16:11:51.499Z,7.90
2023-05-20T16:14:18.181Z,8.60
2023-05-20T16:16:45.057Z,10.30
2023-05-20T16:19:12.003Z,9.20
2023-05-20T16:21:38.808Z,9.30
2023-05-20T16:24:05.775Z,8.60
2023-05-20T16:26:32.573Z,9.90
2023-05-20T16:28:59.371Z,10.00
2023-05-20T16:31:26.756Z,8.20
2023-05-20T16:33:53.613Z,10.60
2023-05-20T16:36:21.769Z,10.40
2023-05-20T16:38:48.627Z,10.60
2023-05-20T16:41:16.417Z,10.10
2023-05-20T16:43:43.236Z,10.80
2023-05-20T16:46:10.215Z,9.30
2023-05-20T16:48:37.368Z,10.30
2023-05-20T16:51:04.332Z,8.40
2023-05-20T16:53:30.948Z,11.20
2023-05-20T16:55:57.795Z,9.20
2023-05-20T16:58:24.598Z,7.90
2023-05-20T17:00:51.367Z,14.60
2023-05-20T17:03:18.172Z,9.90
2023-05-20T17:05:45.037Z,9.90
2023-05-20T17:08:11.931Z,9.10
2023-05-20T17:10:38.934Z,12.40
2023-05-20T17:13:05.915Z,9.20
2023-05-20T17:15:33.312Z,9.10
2023-05-20T17:18:00.029Z,13.70
2023-05-20T17:20:26.716Z,12.00
2023-05-20T17:22:53.568Z,10.50
2023-05-20T17:25:20.525Z,9.90
2023-05-20T17:27:47.153Z,9.50
2023-05-20T17:30:15.023Z,10.40
2023-05-20T17:32:41.917Z,13.30
2023-05-20T17:35:09.327Z,10.10
2023-05-20T17:37:37.205Z,9.90
2023-05-20T17:40:06.187Z,10.70
2023-05-20T17:42:33.681Z,10.90
2023-05-20T17:45:00.600Z,8.80
2023-05-20T17:47:27.326Z,9.40
2023-05-20T17:49:54.076Z,11.90
2023-05-20T17:52:20.796Z,10.10
2023-05-20T17:54:47.496Z,9.90
2023-05-20T17:57:14.312Z,9.40
2023-05-20T17:59:42.101Z,10.30
2023-05-20T18:02:09.103Z,10.20
2023-05-20T18:04:35.946Z,8.70
2023-05-20T18:07:04.134Z,10.00
2023-05-20T18:09:31.213Z,9.90
2023-05-20T18:11:57.956Z,10.60
2023-05-20T18:14:26.650Z,10.10
2023-05-20T18:16:54.913Z,11.10
2023-05-20T18:19:21.827Z,10.60
2023-05-20T18:21:48.901Z,15.30
2023-05-20T18:24:16.854Z,9.60
2023-05-20T18:26:44.321Z,9.00
2023-05-20T18:29:12.699Z,12.50
2023-05-20T18:31:41.361Z,10.10
2023-05-20T18:34:09.456Z,11.70
2023-05-20T18:36:37.373Z,10.20
2023-05-20T18:39:05.149Z,10.80
2023-05-20T18:41:45.855Z,10.10
2023-05-20T18:44:17.158Z,9.90
2023-05-20T18:46:44.372Z,12.30
2023-05-20T18:49:11.329Z,13.10
2023-05-20T18:51:39.172Z,11.80
2023-05-20T18:54:05.978Z,12.90
2023-05-20T18:56:32.680Z,9.90
2023-05-20T18:58:59.725Z,9.00
2023-05-20T19:01:27.227Z,9.90
2023-05-20T19:03:53.980Z,10.40
2023-05-20T19:06:22.087Z,10.60
2023-05-20T19:08:49.740Z,10.90
2023-05-20T19:11:16.869Z,12.30
2023-05-20T19:13:43.678Z,9.90
2023-05-20T19:16:10.731Z,11.00
2023-05-20T19:18:37.548Z,8.40
2023-05-20T19:21:04.511Z,9.20
2023-05-20T19:23:32.554Z,9.50
2023-05-20T19:25:59.426Z,9.70
2023-05-20T19:28:26.178Z,12.00
2023-05-20T19:30:53.108Z,12.60
2023-05-20T19:33:20.986Z,10.00
2023-05-20T19:35:47.954Z,11.70
2023-05-20T19:38:14.983Z,8.90
2023-05-20T19:40:41.716Z,9.10
2023-05-20T19:43:08.361Z,10.20
2023-05-20T19:45:36.888Z,9.70
2023-05-20T19:48:05.500Z,10.70
2023-05-20T19:50:33.098Z,11.80
2023-05-20T19:53:00.064Z,11.00
2023-05-20T19:55:26.822Z,10.60
2023-05-20T19:57:53.605Z,10.30
2023-05-20T20:00:21.614Z,10.10
2023-05-20T20:02:49.001Z,11.00
2023-05-20T20:05:16.255Z,11.50
2023-05-20T20:07:43.031Z,10.10
2023-05-20T20:10:10.671Z,10.20
2023-05-20T20:12:37.554Z,9.20
2023-05-20T20:15:04.929Z,10.50
2023-05-20T20:17:33.837Z,9.50
2023-05-20T20:20:01.130Z,9.10
2023-05-20T20:22:28.003Z,8.60
2023-05-20T20:24:54.631Z,8.50
2023-05-20T20:27:23.893Z,8.40
2023-05-20T20:29:51.410Z,10.60
2023-05-20T20:32:18.572Z,10.10
2023-05-20T20:34:46.146Z,9.00
2023-05-20T20:37:15.112Z,9.80
2023-05-20T20:39:45.376Z,10.60
2023-05-20T20:42:12.094Z,9.90
2023-05-20T20:44:42.624Z,10.20
2023-05-20T20:47:10.203Z,10.90
2023-05-20T20:49:37.056Z,8.40
2023-05-20T20:52:03.895Z,8.40
2023-05-20T20:54:32.830Z,9.50
2023-05-20T20:57:00.228Z,9.50
2023-05-20T20:59:26.973Z,9.00
2023-05-20T21:01:54.869Z,9.30
2023-05-20T21:04:21.783Z,10.70
2023-05-20T21:06:48.819Z,9.90
2023-05-20T21:09:16.594Z,10.30
2023-05-20T21:11:45.351Z,8.80
2023-05-20T21:14:12.964Z,10.00
2023-05-20T21:16:40.500Z,9.70
2023-05-20T21:19:07.402Z,9.80
2023-05-20T21:21:34.302Z,10.00
2023-05-20T21:24:01.147Z,10.10
2023-05-20T21:26:27.985Z,11.20
2023-05-20T21:28:54.841Z,9.90
2023-05-20T21:31:21.814Z,11.60
2023-05-20T21:33:48.552Z,11.10
2023-05-20T21:36:15.291Z,10.50
2023-05-20T21:38:42.028Z,9.10
2023-05-20T21:41:08.799Z,9.80
2023-05-20T21:43:37.187Z,11.50
2023-05-20T21:46:04.362Z,12.10
2023-05-20T21:48:31.176Z,8.90
2023-05-20T21:50:57.772Z,11.80
2023-05-20T21:53:24.608Z,10.70
2023-05-20T21:55:51.451Z,10.10
2023-05-20T21:58:18.302Z,10.10
2023-05-20T22:00:45.348Z,11.00
2023-05-20T22:03:13.175Z,10.50
2023-05-20T22:05:45.898Z,11.90
2023-05-20T22:08:13.275Z,10.40
2023-05-20T22:10:40.310Z,12.00
2023-05-20T22:13:07.354Z,12.10
2023-05-20T22:15:34.581Z,9.80
2023-05-20T22:18:04.720Z,9.70
2023-05-20T22:20:33.916Z,11.10
2023-05-20T22:23:01.306Z,10.50
2023-05-20T22:25:27.982Z,12.00
2023-05-20T22:27:54.739Z,11.50
2023-05-20T22:30:21.448Z,10.10
2023-05-20T22:32:48.442Z,11.10
2023-05-20T22:35:15.615Z,9.90
2023-05-20T22:37:42.460Z,11.70
2023-05-20T22:40:09.905Z,10.40
2023-05-20T22:42:36.759Z,10.50
2023-05-20T22:45:04.373Z,11.40
2023-05-20T22:47:31.043Z,10.80
2023-05-20T22:50:02.673Z,9.60
2023-05-20T22:54:57.253Z,10.10
2023-05-20T22:57:25.746Z,10.20
2023-05-20T22:59:54.027Z,10.40
2023-05-20T23:02:21.143Z,9.10
2023-05-20T23:04:48.137Z,9.00
2023-05-20T23:07:19.238Z,9.80
2023-05-20T23:09:47.009Z,9.30
2023-05-20T23:12:13.937Z,11.10
2023-05-20T23:14:40.612Z,8.70
2023-05-20T23:17:07.697Z,11.10
2023-05-20T23:19:34.514Z,9.60
2023-05-20T23:22:01.739Z,10.10
2023-05-20T23:24:28.389Z,8.80
2023-05-20T23:26:55.043Z,9.00
2023-05-20T23:29:22.292Z,8.60
2023-05-20T23:31:50.755Z,7.30
2023-05-20T23:34:18.211Z,8.40
2023-05-20T23:36:45.794Z,8.60
2023-05-20T23:39:12.465Z,7.20
2023-05-20T23:41:39.259Z,8.50
2023-05-20T23:44:06.132Z,7.20
2023-05-20T23:46:32.843Z,8.80
2023-05-20T23:49:02.155Z,7.70
2023-05-20T23:51:28.975Z,7.20
2023-05-20T23:53:56.198Z,8.30
2023-05-20T23:56:23.302Z,7.10
2023-05-20T23:58:50.001Z,7.10
